Time;durP1;ratioP1;P1;durP2;ratioP2;P2;SDS_P1;SDS_P2;PMS_P1;PMS_P2;Temp;Humidity;BMP_temperature;BMP_pressure;BME280_temperature;BME280_humidity;BME280_pressure;Samples;Min_cycle;Max_cycle;Signal;HPM_P1;HPM_P2
2022/09/18 00:02:25;;;;;;;18.80;12.43;;;;;;;;;;5056945;28;20549;-57
2022/09/18 00:04:52;;;;;;;20.88;13.02;;;;;;;;;;5058130;28;20211;-57
2022/09/18 00:07:19;;;;;;;15.63;11.32;;;;;;;;;;5058053;28;20227;-57
2022/09/18 00:09:46;;;;;;;21.60;12.68;;;;;;;;;;5057993;28;20219;-57
2022/09/18 00:12:13;;;;;;;21.08;13.40;;;;;;;;;;5058034;28;20208;-57
2022/09/18 00:14:40;;;;;;;18.17;13.25;;;;;;;;;;5057959;28;20204;-57
2022/09/18 00:17:07;;;;;;;18.35;12.23;;;;;;;;;;5057734;28;20211;-57
2022/09/18 00:19:35;;;;;;;19.25;12.60;;;;;;;;;;5058008;28;20270;-57
2022/09/18 00:22:01;;;;;;;18.23;12.57;;;;;;;;;;5056786;28;20223;-57
2022/09/18 00:24:29;;;;;;;17.58;12.60;;;;;;;;;;5057758;28;20208;-57
2022/09/18 00:26:56;;;;;;;15.07;12.05;;;;;;;;;;5057753;28;20207;-57
2022/09/18 00:29:23;;;;;;;18.05;12.38;;;;;;;;;;5057457;28;20618;-57
2022/09/18 00:31:50;;;;;;;19.85;13.45;;;;;;;;;;5058007;28;20214;-57
2022/09/18 00:34:17;;;;;;;17.63;12.18;;;;;;;;;;5057266;28;20219;-57
2022/09/18 00:36:44;;;;;;;18.15;12.82;;;;;;;;;;5056695;28;20265;-57
2022/09/18 00:39:11;;;;;;;17.55;13.10;;;;;;;;;;5053143;28;20204;-57
2022/09/18 00:41:40;;;;;;;19.15;13.45;;;;;;;;;;5057257;28;20232;-57
2022/09/18 00:44:40;;;;;;;20.52;13.27;;;;;;;;;;5056938;28;20218;-57
2022/09/18 00:47:10;;;;;;;20.23;13.90;;;;;;;;;;5035593;28;20240;-57
2022/09/18 00:49:40;;;;;;;21.60;14.60;;;;;;;;;;5035978;28;20212;-58
2022/09/18 00:52:07;;;;;;;22.67;16.13;;;;;;;;;;5035662;28;20209;-57
2022/09/18 00:54:41;;;;;;;22.75;14.82;;;;;;;;;;5035812;28;20213;-58
2022/09/18 00:57:11;;;;;;;25.75;15.70;;;;;;;;;;5002871;28;20213;-57
2022/09/18 00:59:41;;;;;;;22.85;15.60;;;;;;;;;;5019644;28;20216;-57
2022/09/18 01:02:08;;;;;;;26.35;15.10;;;;;;;;;;5035340;28;20311;-57
2022/09/18 01:04:35;;;;;;;22.83;14.60;;;;;;;;;;5035363;28;20216;-58
2022/09/18 01:07:34;;;;;;;20.25;15.02;;;;;;;;;;5035169;28;20218;-58
2022/09/18 01:10:16;;;;;;;20.83;13.60;;;;;;;;;;5019670;28;20212;-57
2022/09/18 01:12:54;;;;;;;20.48;13.98;;;;;;;;;;5034836;28;20617;-57
2022/09/18 01:15:43;;;;;;;20.63;13.65;;;;;;;;;;5035189;28;20630;-57
2022/09/18 01:18:48;;;;;;;19.25;13.00;;;;;;;;;;5035251;28;20212;-57
2022/09/18 01:21:16;;;;;;;19.75;12.77;;;;;;;;;;5034988;28;20307;-57
2022/09/18 01:24:07;;;;;;;19.67;12.85;;;;;;;;;;5052033;28;20211;-57
2022/09/18 01:26:46;;;;;;;18.75;12.65;;;;;;;;;;5056584;28;20216;-57
2022/09/18 01:29:26;;;;;;;16.15;12.75;;;;;;;;;;5056625;28;20200;-57
2022/09/18 01:32:03;;;;;;;19.55;13.48;;;;;;;;;;5055684;28;20711;-57
2022/09/18 01:34:45;;;;;;;18.00;12.93;;;;;;;;;;5039417;28;20219;-58
2022/09/18 01:37:27;;;;;;;18.40;12.35;;;;;;;;;;5055569;28;20204;-58
2022/09/18 01:40:14;;;;;;;19.05;13.02;;;;;;;;;;5039375;28;20184;-57
2022/09/18 01:42:43;;;;;;;18.52;13.25;;;;;;;;;;5055366;28;20517;-58
2022/09/18 01:45:15;;;;;;;20.15;13.13;;;;;;;;;;5055409;28;20265;-57
2022/09/18 01:47:59;;;;;;;21.00;13.18;;;;;;;;;;5055433;28;20255;-58
2022/09/18 01:50:31;;;;;;;20.38;12.95;;;;;;;;;;5055772;28;20219;-57
2022/09/18 01:53:22;;;;;;;18.55;12.63;;;;;;;;;;5039178;28;20208;-57
2022/09/18 01:55:58;;;;;;;19.23;12.65;;;;;;;;;;5033849;28;20219;-57
2022/09/18 01:58:26;;;;;;;16.00;11.90;;;;;;;;;;5038526;28;20583;-57
2022/09/18 02:00:57;;;;;;;17.77;12.18;;;;;;;;;;5054975;28;20241;-57
2022/09/18 02:03:27;;;;;;;14.95;12.00;;;;;;;;;;5054946;28;20204;-57
2022/09/18 02:06:01;;;;;;;16.23;11.48;;;;;;;;;;5038757;28;20196;-58
2022/09/18 02:08:40;;;;;;;17.70;11.55;;;;;;;;;;5055579;28;20211;-57
2022/09/18 02:11:11;;;;;;;15.82;11.10;;;;;;;;;;5039011;28;20204;-58
2022/09/18 02:13:44;;;;;;;14.43;10.90;;;;;;;;;;5038658;28;20219;-57
2022/09/18 02:16:22;;;;;;;16.25;11.80;;;;;;;;;;5054747;28;20660;-57
2022/09/18 02:18:52;;;;;;;14.32;10.50;;;;;;;;;;5038505;28;20208;-58
2022/09/18 02:21:25;;;;;;;15.00;11.02;;;;;;;;;;5038812;28;20235;-58
2022/09/18 02:23:54;;;;;;;16.27;11.52;;;;;;;;;;5055962;28;20285;-57
2022/09/18 02:26:22;;;;;;;15.30;11.85;;;;;;;;;;5054753;28;20262;-57
2022/09/18 02:28:49;;;;;;;13.63;10.85;;;;;;;;;;5038112;28;20281;-58
2022/09/18 02:31:17;;;;;;;16.67;11.57;;;;;;;;;;5071655;28;20265;-58
2022/09/18 02:33:44;;;;;;;18.02;11.88;;;;;;;;;;5055533;28;20208;-58
2022/09/18 02:36:48;;;;;;;15.23;10.65;;;;;;;;;;5054474;28;20206;-57
2022/09/18 02:39:15;;;;;;;14.93;10.50;;;;;;;;;;5054441;28;20208;-56
2022/09/18 02:41:51;;;;;;;16.70;10.85;;;;;;;;;;5055362;28;20307;-58
2022/09/18 02:44:25;;;;;;;16.13;10.63;;;;;;;;;;5054359;28;20668;-57
2022/09/18 02:47:09;;;;;;;15.45;11.15;;;;;;;;;;5054387;28;20240;-57
2022/09/18 02:50:13;;;;;;;15.75;10.70;;;;;;;;;;5054179;28;20216;-58
2022/09/18 02:53:02;;;;;;;16.08;11.57;;;;;;;;;;5038487;28;20218;-57
2022/09/18 02:55:39;;;;;;;17.95;11.50;;;;;;;;;;5054508;28;20227;-57
2022/09/18 02:58:29;;;;;;;17.67;11.23;;;;;;;;;;5054005;28;20586;-58
2022/09/18 03:01:00;;;;;;;15.25;11.50;;;;;;;;;;5054160;28;20648;-58
2022/09/18 03:03:30;;;;;;;16.27;11.20;;;;;;;;;;5054566;28;20249;-58
2022/09/18 03:06:01;;;;;;;12.98;10.38;;;;;;;;;;5054125;28;20665;-57
2022/09/18 03:08:31;;;;;;;15.63;10.90;;;;;;;;;;5053948;28;20214;-58
2022/09/18 03:10:58;;;;;;;14.88;11.32;;;;;;;;;;5053891;28;20636;-58
2022/09/18 03:13:27;;;;;;;15.95;10.90;;;;;;;;;;5053984;28;20223;-57
2022/09/18 03:15:54;;;;;;;17.13;11.30;;;;;;;;;;5054405;28;20219;-58
2022/09/18 03:18:22;;;;;;;13.80;11.32;;;;;;;;;;5054816;28;20279;-58
2022/09/18 03:20:49;;;;;;;15.63;11.55;;;;;;;;;;5054183;28;20215;-58
2022/09/18 03:23:16;;;;;;;15.80;11.10;;;;;;;;;;5053833;28;20296;-57
2022/09/18 03:25:49;;;;;;;15.30;11.48;;;;;;;;;;5054167;28;20257;-57
2022/09/18 03:28:17;;;;;;;13.82;11.25;;;;;;;;;;5053991;28;20208;-58
2022/09/18 03:30:44;;;;;;;15.05;11.75;;;;;;;;;;5053861;28;20204;-58
2022/09/18 03:33:12;;;;;;;14.55;11.55;;;;;;;;;;5053819;28;20674;-58
2022/09/18 03:35:42;;;;;;;17.30;12.35;;;;;;;;;;5053905;28;20211;-58
2022/09/18 03:38:09;;;;;;;17.48;12.40;;;;;;;;;;5074316;28;20208;-58
2022/09/18 03:40:37;;;;;;;18.75;12.68;;;;;;;;;;5057740;28;20200;-58
2022/09/18 03:43:05;;;;;;;18.77;14.77;;;;;;;;;;5058634;28;20228;-58
2022/09/18 03:45:32;;;;;;;24.05;16.67;;;;;;;;;;5057222;28;20204;-58
2022/09/18 03:48:01;;;;;;;24.65;17.05;;;;;;;;;;5057707;28;20239;-58
2022/09/18 03:50:28;;;;;;;23.63;16.38;;;;;;;;;;5058284;28;20537;-58
2022/09/18 03:52:55;;;;;;;29.25;19.17;;;;;;;;;;5057397;28;20200;-58
2022/09/18 03:55:48;;;;;;;24.65;16.70;;;;;;;;;;5052518;28;20207;-58
2022/09/18 03:58:33;;;;;;;29.67;19.63;;;;;;;;;;5057774;28;20207;-58
2022/09/18 04:01:07;;;;;;;32.05;20.58;;;;;;;;;;5055932;28;20207;-58
2022/09/18 04:03:55;;;;;;;34.22;21.70;;;;;;;;;;5056128;28;20203;-60
2022/09/18 04:06:50;;;;;;;31.02;21.13;;;;;;;;;;5045265;28;20274;-58
2022/09/18 04:09:40;;;;;;;31.10;20.88;;;;;;;;;;5051352;28;20198;-58
2022/09/18 04:12:08;;;;;;;31.48;20.80;;;;;;;;;;5052440;28;20640;-58
2022/09/18 04:14:35;;;;;;;32.88;19.75;;;;;;;;;;5053781;28;20206;-59
2022/09/18 04:17:02;;;;;;;32.88;20.77;;;;;;;;;;5061911;28;20353;-58
2022/09/18 04:19:29;;;;;;;28.70;19.58;;;;;;;;;;5050772;28;20200;-58
2022/09/18 04:21:57;;;;;;;31.10;21.02;;;;;;;;;;5071423;28;20208;-60
2022/09/18 04:24:24;;;;;;;30.15;19.85;;;;;;;;;;5053198;28;20211;-59
2022/09/18 04:26:51;;;;;;;32.70;21.67;;;;;;;;;;5054582;28;20204;-59
2022/09/18 04:29:20;;;;;;;30.17;19.90;;;;;;;;;;5053359;28;20200;-60
2022/09/18 04:31:48;;;;;;;37.50;21.45;;;;;;;;;;5054530;28;20192;-59
2022/09/18 04:34:18;;;;;;;33.45;21.63;;;;;;;;;;5071060;28;20214;-59
2022/09/18 04:36:46;;;;;;;29.38;19.40;;;;;;;;;;5055002;28;20608;-58
2022/09/18 04:39:13;;;;;;;36.45;22.17;;;;;;;;;;5059068;28;20302;-59
2022/09/18 04:41:44;;;;;;;31.55;22.02;;;;;;;;;;5053834;28;20200;-58
2022/09/18 04:44:12;;;;;;;32.33;20.80;;;;;;;;;;5052985;28;20537;-60
2022/09/18 04:46:41;;;;;;;30.60;21.17;;;;;;;;;;5052112;28;20224;-58
2022/09/18 04:49:09;;;;;;;34.67;21.83;;;;;;;;;;5053855;28;20513;-58
2022/09/18 04:51:37;;;;;;;35.63;21.45;;;;;;;;;;5048909;28;20695;-58
2022/09/18 04:54:04;;;;;;;35.50;23.25;;;;;;;;;;5056028;28;20327;-57
2022/09/18 04:56:35;;;;;;;31.45;20.67;;;;;;;;;;5046603;28;20189;-59
2022/09/18 04:59:02;;;;;;;32.55;20.73;;;;;;;;;;5063544;28;20199;-58
2022/09/18 05:01:29;;;;;;;32.38;20.73;;;;;;;;;;5036056;28;20197;-58
2022/09/18 05:04:00;;;;;;;29.45;20.40;;;;;;;;;;5036010;28;20215;-59
2022/09/18 05:06:39;;;;;;;28.73;18.48;;;;;;;;;;5036525;28;20217;-58
2022/09/18 05:09:06;;;;;;;34.20;21.50;;;;;;;;;;5037545;28;20668;-58
2022/09/18 05:11:32;;;;;;;29.60;20.52;;;;;;;;;;5036759;28;20286;-58
2022/09/18 05:13:59;;;;;;;34.28;20.70;;;;;;;;;;5036008;28;20207;-58
2022/09/18 05:16:30;;;;;;;29.85;19.50;;;;;;;;;;5035925;28;20219;-61
2022/09/18 05:19:16;;;;;;;30.63;19.58;;;;;;;;;;5044452;28;20207;-58
2022/09/18 05:21:44;;;;;;;26.67;18.90;;;;;;;;;;5072183;28;20222;-58
2022/09/18 05:24:12;;;;;;;27.33;18.63;;;;;;;;;;5072973;28;20220;-58
2022/09/18 05:26:40;;;;;;;29.75;17.60;;;;;;;;;;5055364;28;20207;-58
2022/09/18 05:29:07;;;;;;;26.40;17.83;;;;;;;;;;5072834;28;20212;-58
2022/09/18 05:31:34;;;;;;;24.70;16.85;;;;;;;;;;5055632;28;20292;-58
2022/09/18 05:34:01;;;;;;;23.88;16.65;;;;;;;;;;5056703;28;20291;-58
2022/09/18 05:36:28;;;;;;;23.75;16.65;;;;;;;;;;5071870;28;20204;-58
2022/09/18 05:38:55;;;;;;;23.40;16.23;;;;;;;;;;5072447;28;20211;-58
2022/09/18 05:41:23;;;;;;;23.98;16.05;;;;;;;;;;5055589;28;20263;-58
2022/09/18 05:43:50;;;;;;;23.90;17.17;;;;;;;;;;5072230;28;20232;-58
2022/09/18 05:46:17;;;;;;;26.80;18.02;;;;;;;;;;5071792;28;20259;-58
2022/09/18 05:48:56;;;;;;;28.45;18.38;;;;;;;;;;5072000;28;20200;-58
2022/09/18 05:51:23;;;;;;;24.95;17.27;;;;;;;;;;5056316;28;20200;-58
2022/09/18 05:53:50;;;;;;;23.42;17.13;;;;;;;;;;5071811;28;20641;-58
2022/09/18 05:56:26;;;;;;;24.33;16.65;;;;;;;;;;5071444;28;20569;-58
2022/09/18 05:58:54;;;;;;;23.17;16.25;;;;;;;;;;5052264;28;20220;-58
2022/09/18 06:01:21;;;;;;;24.50;16.40;;;;;;;;;;5033908;28;20764;-59
2022/09/18 06:04:08;;;;;;;22.27;15.50;;;;;;;;;;5055028;28;20239;-58
2022/09/18 06:06:50;;;;;;;23.98;16.70;;;;;;;;;;5053879;28;20245;-58
2022/09/18 06:09:17;;;;;;;23.05;16.17;;;;;;;;;;5043766;28;20544;-58
2022/09/18 06:11:44;;;;;;;23.75;15.85;;;;;;;;;;5043479;28;20216;-58
2022/09/18 06:14:11;;;;;;;24.20;15.18;;;;;;;;;;5033763;28;20236;-59
2022/09/18 06:16:39;;;;;;;22.17;15.07;;;;;;;;;;5034181;28;20537;-57
2022/09/18 06:19:09;;;;;;;21.42;15.02;;;;;;;;;;5042651;28;20239;-59
2022/09/18 06:21:36;;;;;;;22.67;15.80;;;;;;;;;;5070552;28;20224;-59
2022/09/18 06:24:05;;;;;;;18.65;13.27;;;;;;;;;;5069707;28;20691;-58
2022/09/18 06:26:38;;;;;;;20.15;13.52;;;;;;;;;;5053785;28;20220;-58
2022/09/18 06:29:05;;;;;;;18.65;13.38;;;;;;;;;;5054554;28;20234;-59
2022/09/18 06:31:44;;;;;;;19.30;13.63;;;;;;;;;;5053869;28;20224;-60
2022/09/18 06:34:16;;;;;;;18.20;13.63;;;;;;;;;;5069978;28;20227;-58
2022/09/18 06:36:45;;;;;;;18.58;12.32;;;;;;;;;;5052569;28;20337;-59
2022/09/18 06:39:24;;;;;;;18.05;12.60;;;;;;;;;;5053914;28;20322;-60
2022/09/18 06:41:58;;;;;;;15.18;11.68;;;;;;;;;;5053500;28;20238;-58
2022/09/18 06:44:45;;;;;;;14.20;10.35;;;;;;;;;;5053259;28;20672;-59
2022/09/18 06:47:14;;;;;;;17.98;12.73;;;;;;;;;;5069946;28;20293;-59
2022/09/18 06:49:44;;;;;;;21.48;14.13;;;;;;;;;;5053167;28;20307;-60
2022/09/18 06:52:10;;;;;;;21.13;14.95;;;;;;;;;;5053585;28;20238;-58
2022/09/18 06:54:39;;;;;;;22.38;14.68;;;;;;;;;;5048221;28;20677;-58
2022/09/18 06:57:06;;;;;;;21.98;15.40;;;;;;;;;;5053813;28;20293;-58
2022/09/18 06:59:33;;;;;;;23.42;15.25;;;;;;;;;;5054023;28;20247;-59
2022/09/18 07:02:00;;;;;;;22.30;14.65;;;;;;;;;;5046801;28;20211;-59
2022/09/18 07:04:46;;;;;;;23.45;14.40;;;;;;;;;;5046933;28;20719;-60
2022/09/18 07:07:16;;;;;;;22.92;14.85;;;;;;;;;;5048356;28;20215;-58
2022/09/18 07:09:45;;;;;;;24.35;15.32;;;;;;;;;;5051175;28;20216;-58
2022/09/18 07:12:25;;;;;;;27.25;16.92;;;;;;;;;;5037267;28;20219;-59
2022/09/18 07:14:52;;;;;;;24.02;13.75;;;;;;;;;;5036262;28;20255;-56
2022/09/18 07:17:21;;;;;;;24.83;15.65;;;;;;;;;;5051193;28;20223;-58
2022/09/18 07:19:53;;;;;;;20.80;13.82;;;;;;;;;;5052855;28;20228;-59
2022/09/18 07:22:25;;;;;;;20.05;13.15;;;;;;;;;;5047646;28;20225;-58
2022/09/18 07:24:53;;;;;;;20.02;12.85;;;;;;;;;;5048516;28;20564;-59
2022/09/18 07:27:21;;;;;;;19.75;12.48;;;;;;;;;;5048120;28;20231;-59
2022/09/18 07:29:49;;;;;;;20.67;13.38;;;;;;;;;;5047574;28;20227;-61
2022/09/18 07:32:21;;;;;;;18.75;11.90;;;;;;;;;;5049563;28;20309;-61
2022/09/18 07:34:48;;;;;;;20.30;12.40;;;;;;;;;;5046062;28;20590;-60
2022/09/18 07:37:23;;;;;;;19.33;12.38;;;;;;;;;;5047672;28;20227;-60
2022/09/18 07:40:11;;;;;;;20.48;12.35;;;;;;;;;;5040698;28;20219;-61
2022/09/18 07:43:02;;;;;;;19.42;12.77;;;;;;;;;;5050503;28;20228;-61
2022/09/18 07:45:29;;;;;;;23.30;13.65;;;;;;;;;;5064057;28;20244;-61
2022/09/18 07:47:59;;;;;;;24.10;14.50;;;;;;;;;;5045433;28;20258;-62
2022/09/18 07:50:28;;;;;;;23.48;14.40;;;;;;;;;;5048881;28;20653;-61
2022/09/18 07:52:57;;;;;;;24.85;15.00;;;;;;;;;;5044782;28;20220;-61
2022/09/18 07:55:30;;;;;;;22.85;15.15;;;;;;;;;;5050006;28;20216;-61
2022/09/18 07:57:59;;;;;;;24.83;14.85;;;;;;;;;;5047375;28;20556;-61
2022/09/18 08:00:50;;;;;;;22.00;13.20;;;;;;;;;;5044012;28;20224;-61
2022/09/18 08:03:18;;;;;;;20.42;13.13;;;;;;;;;;5063098;28;20228;-62
2022/09/18 08:06:12;;;;;;;21.45;14.18;;;;;;;;;;5042064;28;20216;-62
2022/09/18 08:09:02;;;;;;;23.58;14.77;;;;;;;;;;5049862;28;20610;-61
2022/09/18 08:11:54;;;;;;;22.13;15.35;;;;;;;;;;5049992;28;20208;-61
2022/09/18 08:14:29;;;;;;;24.25;15.77;;;;;;;;;;5050722;28;20656;-61
2022/09/18 08:17:15;;;;;;;20.92;13.38;;;;;;;;;;5051771;28;20216;-61
2022/09/18 08:20:21;;;;;;;21.35;14.68;;;;;;;;;;4991227;28;20226;-60
2022/09/18 08:23:08;;;;;;;24.55;16.40;;;;;;;;;;4963186;28;20238;-60
2022/09/18 08:25:38;;;;;;;23.45;15.65;;;;;;;;;;5023588;28;20230;-61
2022/09/18 08:28:06;;;;;;;21.30;15.35;;;;;;;;;;5053863;28;20231;-62
2022/09/18 08:30:41;;;;;;;21.42;15.25;;;;;;;;;;5062206;28;20303;-61
2022/09/18 08:33:10;;;;;;;22.65;15.13;;;;;;;;;;5052204;28;20240;-61
2022/09/18 08:35:37;;;;;;;25.55;16.65;;;;;;;;;;5031518;28;20271;-61
2022/09/18 08:38:16;;;;;;;24.25;16.85;;;;;;;;;;5050641;28;20234;-60
2022/09/18 08:41:13;;;;;;;25.77;17.60;;;;;;;;;;5053314;28;20220;-60
2022/09/18 08:43:43;;;;;;;24.30;18.15;;;;;;;;;;5053455;28;20274;-61
2022/09/18 08:46:15;;;;;;;27.35;18.08;;;;;;;;;;5050333;28;20235;-60
2022/09/18 08:48:53;;;;;;;25.42;17.08;;;;;;;;;;5051691;28;20242;-60
2022/09/18 08:51:31;;;;;;;24.25;17.33;;;;;;;;;;5052553;28;20254;-60
2022/09/18 08:54:20;;;;;;;25.45;18.13;;;;;;;;;;5047491;28;20231;-60
2022/09/18 08:57:22;;;;;;;24.33;16.50;;;;;;;;;;5048271;28;20236;-61
2022/09/18 09:00:23;;;;;;;24.77;16.90;;;;;;;;;;5048605;28;20216;-60
2022/09/18 09:03:19;;;;;;;22.75;15.70;;;;;;;;;;5052951;28;20682;-60
2022/09/18 09:06:25;;;;;;;23.42;16.77;;;;;;;;;;5054439;28;20223;-61
2022/09/18 09:09:09;;;;;;;22.50;15.48;;;;;;;;;;5034054;28;20215;-60
2022/09/18 09:12:08;;;;;;;22.27;15.52;;;;;;;;;;5058227;28;20224;-61
2022/09/18 09:15:09;;;;;;;18.70;14.10;;;;;;;;;;5051950;28;20228;-59
2022/09/18 09:17:41;;;;;;;21.23;13.82;;;;;;;;;;5050180;28;20657;-60
2022/09/18 09:20:13;;;;;;;19.63;14.40;;;;;;;;;;5052080;28;20302;-60
2022/09/18 09:22:49;;;;;;;19.38;14.02;;;;;;;;;;5033735;28;20239;-60
2022/09/18 09:25:20;;;;;;;21.10;15.23;;;;;;;;;;5050819;28;20223;-59
2022/09/18 09:28:27;;;;;;;19.67;13.82;;;;;;;;;;5038750;28;20216;-60
2022/09/18 09:31:18;;;;;;;21.15;14.38;;;;;;;;;;5052298;28;20421;-60
2022/09/18 09:34:35;;;;;;;22.98;15.43;;;;;;;;;;5051986;28;20305;-60
2022/09/18 09:37:23;;;;;;;26.23;16.63;;;;;;;;;;5006202;28;20211;-60
2022/09/18 09:39:56;;;;;;;20.00;14.65;;;;;;;;;;5051861;28;20227;-60
2022/09/18 09:42:54;;;;;;;22.42;15.05;;;;;;;;;;5052925;28;20224;-60
2022/09/18 09:45:48;;;;;;;20.40;14.50;;;;;;;;;;5065614;28;20216;-60
2022/09/18 09:48:31;;;;;;;19.83;14.48;;;;;;;;;;5032726;28;20220;-59
2022/09/18 09:51:15;;;;;;;21.73;14.55;;;;;;;;;;5051268;28;20224;-60
2022/09/18 09:53:43;;;;;;;20.45;14.70;;;;;;;;;;5029769;28;20277;-60
2022/09/18 09:56:27;;;;;;;24.52;15.50;;;;;;;;;;5051161;28;20220;-60
2022/09/18 09:59:04;;;;;;;25.65;17.08;;;;;;;;;;5050823;28;20203;-60
2022/09/18 10:02:16;;;;;;;23.88;16.52;;;;;;;;;;5034019;28;20223;-60
2022/09/18 10:04:52;;;;;;;22.70;15.55;;;;;;;;;;5061361;28;20664;-60
2022/09/18 10:07:33;;;;;;;23.73;16.48;;;;;;;;;;5034214;28;20232;-60
2022/09/18 10:10:06;;;;;;;24.58;15.45;;;;;;;;;;5051356;28;20226;-60
2022/09/18 10:12:50;;;;;;;21.98;15.20;;;;;;;;;;5049551;28;20233;-60
2022/09/18 10:15:29;;;;;;;22.23;15.13;;;;;;;;;;5050146;28;20661;-59
2022/09/18 10:17:58;;;;;;;22.27;14.38;;;;;;;;;;5037380;28;20207;-59
2022/09/18 10:20:27;;;;;;;22.00;14.35;;;;;;;;;;5044089;28;20239;-59
2022/09/18 10:23:05;;;;;;;20.80;14.45;;;;;;;;;;5053479;28;20231;-59
2022/09/18 10:25:50;;;;;;;19.67;13.45;;;;;;;;;;5020690;28;20239;-59
2022/09/18 10:28:17;;;;;;;20.80;13.75;;;;;;;;;;5035956;28;20319;-59
2022/09/18 10:31:03;;;;;;;24.35;15.32;;;;;;;;;;5052705;28;20231;-60
2022/09/18 10:33:46;;;;;;;23.75;15.13;;;;;;;;;;5050280;28;20675;-55
2022/09/18 10:36:32;;;;;;;19.30;13.77;;;;;;;;;;5033162;28;20236;-58
2022/09/18 10:39:24;;;;;;;21.83;15.30;;;;;;;;;;5014690;28;20266;-59
2022/09/18 10:42:04;;;;;;;18.73;13.48;;;;;;;;;;5047984;28;20248;-57
2022/09/18 10:44:35;;;;;;;22.00;13.15;;;;;;;;;;5033619;28;20276;-58
2022/09/18 10:47:19;;;;;;;20.05;12.10;;;;;;;;;;5031515;28;20327;-58
2022/09/18 10:50:05;;;;;;;19.60;11.57;;;;;;;;;;5032458;28;20231;-54
2022/09/18 10:52:36;;;;;;;15.65;9.57;;;;;;;;;;5050385;28;20224;-59
2022/09/18 10:55:18;;;;;;;17.23;10.98;;;;;;;;;;5050321;28;20672;-59
2022/09/18 10:57:57;;;;;;;17.48;10.50;;;;;;;;;;5028075;28;20220;-59
2022/09/18 11:00:24;;;;;;;18.17;11.10;;;;;;;;;;5051937;28;20227;-59
2022/09/18 11:02:59;;;;;;;19.48;11.32;;;;;;;;;;5050198;28;20673;-59
2022/09/18 11:05:36;;;;;;;16.80;10.98;;;;;;;;;;5050851;28;20251;-58
2022/09/18 11:08:06;;;;;;;18.48;10.27;;;;;;;;;;5051822;28;20219;-59
2022/09/18 11:10:36;;;;;;;15.10;10.20;;;;;;;;;;5050303;28;20308;-59
2022/09/18 11:13:04;;;;;;;16.95;10.52;;;;;;;;;;5049645;28;20215;-58
2022/09/18 11:15:51;;;;;;;15.30;9.25;;;;;;;;;;5033264;28;20211;-59
2022/09/18 11:18:22;;;;;;;19.38;9.50;;;;;;;;;;5049323;28;20235;-59
2022/09/18 11:20:51;;;;;;;15.75;10.05;;;;;;;;;;5047396;28;20224;-59
2022/09/18 11:23:31;;;;;;;17.00;10.02;;;;;;;;;;5050201;28;20235;-59
2022/09/18 11:26:18;;;;;;;12.77;9.25;;;;;;;;;;5050765;28;20228;-60
2022/09/18 11:29:04;;;;;;;15.82;9.75;;;;;;;;;;5051498;28;20239;-61
2022/09/18 11:31:39;;;;;;;11.82;8.20;;;;;;;;;;5047392;28;20625;-59
2022/09/18 11:34:18;;;;;;;12.20;8.57;;;;;;;;;;5033757;28;20522;-58
2022/09/18 11:36:47;;;;;;;12.93;8.77;;;;;;;;;;5032001;28;20223;-58
2022/09/18 11:39:19;;;;;;;10.90;7.75;;;;;;;;;;5050916;28;20239;-58
2022/09/18 11:41:52;;;;;;;15.75;8.00;;;;;;;;;;5047787;28;20223;-59
2022/09/18 11:44:31;;;;;;;14.43;7.97;;;;;;;;;;5015378;28;20232;-60
2022/09/18 11:47:03;;;;;;;6.68;3.85;;;;;;;;;;5050356;28;20235;-59
2022/09/18 11:49:57;;;;;;;7.30;3.70;;;;;;;;;;5051368;28;20285;-60
2022/09/18 11:52:29;;;;;;;5.88;3.38;;;;;;;;;;5051812;28;20312;-60
2022/09/18 11:55:15;;;;;;;5.10;3.13;;;;;;;;;;5044349;28;20227;-60
2022/09/18 11:57:47;;;;;;;16.48;6.63;;;;;;;;;;5048266;28;20225;-60
2022/09/18 12:00:20;;;;;;;6.07;3.85;;;;;;;;;;5036425;28;20244;-60
2022/09/18 12:03:16;;;;;;;4.57;4.10;;;;;;;;;;5065604;28;20251;-60
2022/09/18 12:05:54;;;;;;;5.15;3.90;;;;;;;;;;5056406;28;20232;-60
2022/09/18 12:08:53;;;;;;;14.18;6.85;;;;;;;;;;5038879;28;20620;-60
2022/09/18 12:11:36;;;;;;;10.30;5.88;;;;;;;;;;5055650;28;20224;-59
2022/09/18 12:14:09;;;;;;;6.00;4.90;;;;;;;;;;5033198;28;20218;-59
2022/09/18 12:16:41;;;;;;;6.65;4.65;;;;;;;;;;5055023;28;20219;-60
2022/09/18 12:19:19;;;;;;;6.63;5.35;;;;;;;;;;5051601;28;20738;-59
2022/09/18 12:21:58;;;;;;;9.18;5.88;;;;;;;;;;5054674;28;20211;-59
2022/09/18 12:24:26;;;;;;;9.07;5.75;;;;;;;;;;5050464;28;20240;-60
2022/09/18 12:27:06;;;;;;;8.68;5.95;;;;;;;;;;5035307;28;20237;-60
2022/09/18 12:29:53;;;;;;;6.05;5.45;;;;;;;;;;5048779;28;20235;-60
2022/09/18 12:32:53;;;;;;;7.63;5.38;;;;;;;;;;5034979;28;20669;-60
2022/09/18 12:35:36;;;;;;;6.10;4.72;;;;;;;;;;5034657;28;20233;-60
2022/09/18 12:38:45;;;;;;;9.07;6.65;;;;;;;;;;5035966;28;20217;-59
2022/09/18 12:41:18;;;;;;;16.05;8.70;;;;;;;;;;5020977;28;20221;-60
2022/09/18 12:44:05;;;;;;;8.82;6.28;;;;;;;;;;5036420;28;20229;-60
2022/09/18 12:46:54;;;;;;;11.00;6.70;;;;;;;;;;5036485;28;20613;-60
2022/09/18 12:49:38;;;;;;;12.70;6.93;;;;;;;;;;5035943;28;20240;-60
2022/09/18 12:52:42;;;;;;;7.13;5.57;;;;;;;;;;5036794;28;20286;-60
2022/09/18 12:56:05;;;;;;;6.72;5.47;;;;;;;;;;5035457;28;20232;-60
2022/09/18 12:59:02;;;;;;;5.90;4.15;;;;;;;;;;5036729;28;20252;-59
2022/09/18 13:01:51;;;;;;;4.78;3.83;;;;;;;;;;5046759;28;20288;-60
2022/09/18 13:04:38;;;;;;;6.45;3.78;;;;;;;;;;5035209;28;20232;-61
2022/09/18 13:07:32;;;;;;;3.90;3.10;;;;;;;;;;5054615;28;20239;-60
2022/09/18 13:10:14;;;;;;;3.30;2.95;;;;;;;;;;5053774;28;20717;-60
2022/09/18 13:12:52;;;;;;;2.83;2.50;;;;;;;;;;5055279;28;20567;-60
2022/09/18 13:15:32;;;;;;;3.78;3.00;;;;;;;;;;5054940;28;20310;-60
2022/09/18 13:18:38;;;;;;;4.25;2.20;;;;;;;;;;5053938;28;20219;-59
2022/09/18 13:21:09;;;;;;;3.60;2.10;;;;;;;;;;5032826;28;20236;-58
2022/09/18 13:23:38;;;;;;;2.35;1.80;;;;;;;;;;5034031;28;20243;-58
2022/09/18 13:26:12;;;;;;;1.63;1.40;;;;;;;;;;5016074;28;20323;-58
2022/09/18 13:28:43;;;;;;;1.58;1.48;;;;;;;;;;5029074;28;20220;-57
2022/09/18 13:31:29;;;;;;;3.25;1.90;;;;;;;;;;5033121;28;20594;-58
2022/09/18 13:34:03;;;;;;;2.53;1.50;;;;;;;;;;5033506;28;20232;-57
2022/09/18 13:36:34;;;;;;;4.45;1.25;;;;;;;;;;5017288;28;20808;-58
2022/09/18 13:39:15;;;;;;;2.08;1.38;;;;;;;;;;5032942;28;20660;-57
2022/09/18 13:41:49;;;;;;;3.03;1.88;;;;;;;;;;5026919;28;20315;-58
2022/09/18 13:44:21;;;;;;;2.10;1.67;;;;;;;;;;5016739;28;20242;-59
2022/09/18 13:46:50;;;;;;;4.53;2.28;;;;;;;;;;5031635;28;20228;-58
2022/09/18 13:49:29;;;;;;;2.58;1.40;;;;;;;;;;5019896;28;20435;-58
2022/09/18 13:52:34;;;;;;;2.28;1.50;;;;;;;;;;5025986;28;20285;-60
2022/09/18 13:55:25;;;;;;;2.97;1.30;;;;;;;;;;5038647;28;20230;-60
2022/09/18 13:58:41;;;;;;;3.40;1.70;;;;;;;;;;5051498;28;20277;-59
2022/09/18 14:01:09;;;;;;;2.58;1.67;;;;;;;;;;5028761;28;20243;-59
2022/09/18 14:03:40;;;;;;;3.05;1.70;;;;;;;;;;5053296;28;20245;-60
2022/09/18 14:06:35;;;;;;;3.75;1.73;;;;;;;;;;5046370;28;20238;-60
2022/09/18 14:09:24;;;;;;;3.95;1.60;;;;;;;;;;5052150;28;20588;-60
2022/09/18 14:11:51;;;;;;;3.47;1.83;;;;;;;;;;5051946;28;20226;-60
2022/09/18 14:14:21;;;;;;;2.83;1.75;;;;;;;;;;5052959;28;20257;-59
2022/09/18 14:16:49;;;;;;;5.28;2.00;;;;;;;;;;5051213;28;20258;-61
2022/09/18 14:19:31;;;;;;;3.20;2.30;;;;;;;;;;5046334;28;20443;-61
2022/09/18 14:21:59;;;;;;;5.50;2.83;;;;;;;;;;5047940;28;20664;-60
2022/09/18 14:24:48;;;;;;;3.63;2.47;;;;;;;;;;5051415;28;20331;-61
2022/09/18 14:27:30;;;;;;;7.53;2.60;;;;;;;;;;5050934;28;20303;-60
2022/09/18 14:30:01;;;;;;;7.72;3.30;;;;;;;;;;5049948;28;20254;-61
2022/09/18 14:32:28;;;;;;;4.72;2.35;;;;;;;;;;5053025;28;20227;-61
2022/09/18 14:35:21;;;;;;;6.07;2.83;;;;;;;;;;5051086;28;20219;-61
2022/09/18 14:37:48;;;;;;;3.67;2.40;;;;;;;;;;5050386;28;20212;-60
2022/09/18 14:40:20;;;;;;;4.50;2.70;;;;;;;;;;5052728;28;20220;-61
2022/09/18 14:42:48;;;;;;;6.40;2.85;;;;;;;;;;5049741;28;20231;-60
2022/09/18 14:45:28;;;;;;;5.68;2.83;;;;;;;;;;5052838;28;20265;-61
2022/09/18 14:47:56;;;;;;;4.03;2.83;;;;;;;;;;5051430;28;20235;-60
2022/09/18 14:50:25;;;;;;;6.45;3.22;;;;;;;;;;5052680;28;20227;-61
2022/09/18 14:52:54;;;;;;;5.05;2.88;;;;;;;;;;5050380;28;20577;-62
2022/09/18 14:55:29;;;;;;;6.28;3.05;;;;;;;;;;5048373;28;20223;-61
2022/09/18 14:58:06;;;;;;;4.07;2.65;;;;;;;;;;5051933;28;20357;-62
2022/09/18 15:00:34;;;;;;;5.53;2.75;;;;;;;;;;5051484;28;20211;-62
2022/09/18 15:03:19;;;;;;;4.65;2.72;;;;;;;;;;5051853;28;20216;-61
2022/09/18 15:05:49;;;;;;;6.40;2.88;;;;;;;;;;5052734;28;20231;-61
2022/09/18 15:08:20;;;;;;;5.22;2.85;;;;;;;;;;5052112;28;20236;-61
2022/09/18 15:10:55;;;;;;;8.10;4.30;;;;;;;;;;5051783;28;20536;-61
2022/09/18 15:13:23;;;;;;;5.82;3.00;;;;;;;;;;5050221;28;20235;-62
2022/09/18 15:15:59;;;;;;;9.63;4.80;;;;;;;;;;5052100;28;20216;-63
2022/09/18 15:18:28;;;;;;;8.13;3.03;;;;;;;;;;5047817;28;20232;-62